createdAt,value
2023-01-20T00:02:36.299Z,12.10
2023-01-20T00:05:25.070Z,12.95
2023-01-20T00:08:12.530Z,12.55
2023-01-20T00:10:59.979Z,13.15
2023-01-20T00:13:47.604Z,11.98
2023-01-20T00:16:34.870Z,13.95
2023-01-20T00:19:22.248Z,14.32
2023-01-20T00:22:11.166Z,13.10
2023-01-20T00:24:58.899Z,14.85
2023-01-20T00:27:46.792Z,12.27
2023-01-20T00:30:34.204Z,13.38
2023-01-20T00:33:21.763Z,12.98
2023-01-20T00:36:11.009Z,11.75
2023-01-20T00:39:00.250Z,13.10
2023-01-20T00:41:47.682Z,12.60
2023-01-20T00:44:35.074Z,14.25
2023-01-20T00:47:22.965Z,13.50
2023-01-20T00:50:11.521Z,12.73
2023-01-20T00:52:58.743Z,13.73
2023-01-20T00:55:47.703Z,12.70
2023-01-20T00:58:35.465Z,12.68
2023-01-20T01:01:22.916Z,13.25
2023-01-20T01:04:10.196Z,12.65
2023-01-20T01:06:57.759Z,14.77
2023-01-20T01:09:47.326Z,13.98
2023-01-20T01:12:38.835Z,14.18
2023-01-20T01:15:29.516Z,12.98
2023-01-20T01:18:19.871Z,11.52
2023-01-20T01:21:12.724Z,11.55
2023-01-20T01:24:02.203Z,11.88
2023-01-20T01:26:52.092Z,12.32
2023-01-20T01:29:44.159Z,12.35
2023-01-20T01:32:34.665Z,11.35
2023-01-20T01:35:25.177Z,10.15
2023-01-20T01:38:15.564Z,11.20
2023-01-20T01:41:05.936Z,11.80
2023-01-20T01:44:10.159Z,9.50
2023-01-20T01:47:02.131Z,10.25
2023-01-20T01:49:52.597Z,12.00
2023-01-20T01:52:44.669Z,11.80
2023-01-20T01:55:40.313Z,12.43
2023-01-20T01:58:34.531Z,14.82
2023-01-20T02:01:25.405Z,13.43
2023-01-20T02:04:18.683Z,14.45
2023-01-20T02:07:15.057Z,14.50
2023-01-20T02:10:05.225Z,14.23
2023-01-20T02:12:55.833Z,16.05
2023-01-20T02:15:52.726Z,13.93
2023-01-20T02:18:52.477Z,15.82
2023-01-20T02:22:07.982Z,14.43
2023-01-20T02:25:18.445Z,16.73
2023-01-20T02:28:24.223Z,13.90
2023-01-20T02:31:36.922Z,14.00
2023-01-20T02:34:30.419Z,10.38
2023-01-20T02:37:20.669Z,16.27
2023-01-20T02:40:19.036Z,15.95
2023-01-20T02:43:12.288Z,16.45
2023-01-20T02:46:07.794Z,14.87
2023-01-20T02:49:00.618Z,14.38
2023-01-20T02:51:55.349Z,15.02
2023-01-20T02:54:47.527Z,13.68
2023-01-20T02:57:40.673Z,14.98
2023-01-20T03:00:34.215Z,14.02
2023-01-20T03:03:25.000Z,15.30
2023-01-20T03:06:18.667Z,14.70
2023-01-20T03:09:11.949Z,13.85
2023-01-20T03:12:05.339Z,13.90
2023-01-20T03:14:53.620Z,14.90
2023-01-20T03:17:40.997Z,16.65
2023-01-20T03:20:28.590Z,13.88
2023-01-20T03:23:16.171Z,14.35
2023-01-20T03:26:09.715Z,14.13
2023-01-20T03:28:57.103Z,13.17
2023-01-20T03:31:45.899Z,14.65
2023-01-20T03:34:36.430Z,10.88
2023-01-20T03:37:24.714Z,12.98
2023-01-20T03:40:13.928Z,14.98
2023-01-20T03:43:07.372Z,14.85
2023-01-20T03:46:00.714Z,14.27
2023-01-20T03:48:51.963Z,14.93
2023-01-20T03:51:47.818Z,13.13
2023-01-20T03:54:42.158Z,16.20
2023-01-20T03:57:36.004Z,13.27
2023-01-20T04:00:29.445Z,12.25
2023-01-20T04:03:20.805Z,13.68
2023-01-20T04:06:10.653Z,14.85
2023-01-20T04:09:03.898Z,14.38
2023-01-20T04:11:51.779Z,14.63
2023-01-20T04:14:39.609Z,13.00
2023-01-20T04:17:30.093Z,12.25
2023-01-20T04:20:17.935Z,12.10
2023-01-20T04:23:07.119Z,11.65
2023-01-20T04:25:54.455Z,11.52
2023-01-20T04:28:41.813Z,10.70
2023-01-20T04:31:31.308Z,10.23
2023-01-20T04:34:20.352Z,9.38
2023-01-20T04:37:07.618Z,9.80
2023-01-20T04:39:55.074Z,9.10
2023-01-20T04:42:42.628Z,8.75
2023-01-20T04:45:30.100Z,9.30
2023-01-20T04:48:17.722Z,8.52
2023-01-20T04:51:07.651Z,8.75
2023-01-20T04:53:57.864Z,7.85
2023-01-20T04:56:45.303Z,8.07
2023-01-20T04:59:32.760Z,8.60
2023-01-20T05:02:20.417Z,8.27
2023-01-20T05:05:08.469Z,8.68
2023-01-20T05:07:59.514Z,10.73
2023-01-20T05:10:46.617Z,9.55
2023-01-20T05:13:38.544Z,12.27
2023-01-20T05:16:31.892Z,11.35
2023-01-20T05:19:19.181Z,11.52
2023-01-20T05:22:06.687Z,11.07
2023-01-20T05:24:55.780Z,11.45
2023-01-20T05:27:45.066Z,12.60
2023-01-20T05:30:32.272Z,12.07
2023-01-20T05:33:20.011Z,12.25
2023-01-20T05:36:08.692Z,12.30
2023-01-20T05:38:56.471Z,14.05
2023-01-20T05:41:46.499Z,12.63
2023-01-20T05:44:35.043Z,13.55
2023-01-20T05:47:22.643Z,14.00
2023-01-20T05:50:11.544Z,13.00
2023-01-20T05:52:58.812Z,13.48
2023-01-20T05:55:46.096Z,15.45
2023-01-20T05:58:34.906Z,12.95
2023-01-20T06:01:22.358Z,14.65
2023-01-20T06:04:10.008Z,14.98
2023-01-20T06:06:57.499Z,15.82
2023-01-20T06:09:45.042Z,15.30
2023-01-20T06:12:32.502Z,15.05
2023-01-20T06:15:21.549Z,14.73
2023-01-20T06:18:12.765Z,15.68
2023-01-20T06:21:00.500Z,17.30
2023-01-20T06:23:47.452Z,14.48
2023-01-20T06:26:34.569Z,14.35
2023-01-20T06:29:22.302Z,15.77
2023-01-20T06:32:11.927Z,13.93
2023-01-20T06:34:59.227Z,13.15
2023-01-20T06:37:46.840Z,15.05
2023-01-20T06:40:34.519Z,14.77
2023-01-20T06:43:22.025Z,15.52
2023-01-20T06:46:12.836Z,15.05
2023-01-20T06:49:01.638Z,14.23
2023-01-20T06:51:49.528Z,14.27
2023-01-20T06:54:36.888Z,15.93
2023-01-20T06:57:24.438Z,11.43
2023-01-20T07:00:13.390Z,15.32
2023-01-20T07:03:00.941Z,13.27
2023-01-20T07:05:56.249Z,12.98
2023-01-20T07:08:44.082Z,15.30
2023-01-20T07:11:31.770Z,13.93
2023-01-20T07:14:19.274Z,14.52
2023-01-20T07:17:11.756Z,13.65
2023-01-20T07:19:59.214Z,13.18
2023-01-20T07:22:48.452Z,13.77
2023-01-20T07:25:38.053Z,13.60
2023-01-20T07:28:25.758Z,12.98
2023-01-20T07:31:16.105Z,13.07
2023-01-20T07:34:03.966Z,12.13
2023-01-20T07:36:52.815Z,14.02
2023-01-20T07:39:42.231Z,13.13
2023-01-20T07:42:29.776Z,13.18
2023-01-20T07:45:17.412Z,14.20
2023-01-20T07:48:05.704Z,13.40
2023-01-20T07:50:57.838Z,12.15
2023-01-20T07:53:47.183Z,12.30
2023-01-20T07:56:36.250Z,12.52
2023-01-20T07:59:23.718Z,13.07
2023-01-20T08:02:12.168Z,12.07
2023-01-20T08:05:00.132Z,10.40
2023-01-20T08:07:52.158Z,12.30
2023-01-20T08:10:39.469Z,11.63
2023-01-20T08:13:28.476Z,9.50
2023-01-20T08:16:18.576Z,10.30
2023-01-20T08:19:06.181Z,10.10
2023-01-20T08:21:53.961Z,9.00
2023-01-20T08:24:41.675Z,9.85
2023-01-20T08:27:28.955Z,10.57
2023-01-20T08:30:18.681Z,10.07
2023-01-20T08:33:06.008Z,9.20
2023-01-20T08:35:55.800Z,9.48
2023-01-20T08:38:43.100Z,9.77
2023-01-20T08:41:32.431Z,9.40
2023-01-20T08:44:20.637Z,9.70
2023-01-20T08:47:09.303Z,9.55
2023-01-20T08:49:56.472Z,10.30
2023-01-20T08:52:43.997Z,11.23
2023-01-20T08:55:31.323Z,11.15
2023-01-20T08:58:18.970Z,11.32
2023-01-20T09:01:09.270Z,11.25
2023-01-20T09:04:05.839Z,12.60
2023-01-20T09:06:54.028Z,11.45
2023-01-20T09:09:41.361Z,11.00
2023-01-20T09:12:28.299Z,10.75
2023-01-20T09:15:15.578Z,10.85
2023-01-20T09:18:03.349Z,10.75
2023-01-20T09:20:52.534Z,10.52
2023-01-20T09:23:42.826Z,9.98
2023-01-20T09:26:38.381Z,9.55
2023-01-20T09:29:26.121Z,7.43
2023-01-20T09:32:15.601Z,7.80
2023-01-20T09:35:03.807Z,8.05
2023-01-20T09:38:09.961Z,8.50
2023-01-20T09:41:25.687Z,9.27
2023-01-20T09:44:25.942Z,8.23
2023-01-20T09:47:24.008Z,7.63
2023-01-20T09:50:43.900Z,7.70
2023-01-20T09:53:44.781Z,7.82
2023-01-20T09:56:38.954Z,7.07
2023-01-20T09:59:29.193Z,8.02
2023-01-20T10:02:21.918Z,7.35
2023-01-20T10:05:14.417Z,7.88
2023-01-20T10:08:05.869Z,7.25
2023-01-20T10:10:58.495Z,8.70
2023-01-20T10:13:51.672Z,8.63
2023-01-20T10:16:44.391Z,7.10
2023-01-20T10:19:38.814Z,8.30
2023-01-20T10:22:32.035Z,7.22
2023-01-20T10:25:23.811Z,7.93
2023-01-20T10:28:15.773Z,8.50
2023-01-20T10:31:06.158Z,7.47
2023-01-20T10:33:56.864Z,7.72
2023-01-20T10:36:50.570Z,8.50
2023-01-20T10:39:42.168Z,7.60
2023-01-20T10:42:30.146Z,7.70
2023-01-20T10:45:24.001Z,6.53
2023-01-20T10:48:23.723Z,7.45
2023-01-20T10:51:18.318Z,7.68
2023-01-20T10:54:15.550Z,8.68
2023-01-20T10:57:05.168Z,8.60
2023-01-20T10:59:55.474Z,7.15
2023-01-20T11:02:44.992Z,7.38
2023-01-20T11:05:38.144Z,6.22
2023-01-20T11:08:28.696Z,7.47
2023-01-20T11:11:18.679Z,7.85
2023-01-20T11:14:06.165Z,7.18
2023-01-20T11:16:59.714Z,8.07
2023-01-20T11:19:50.549Z,8.15
2023-01-20T11:22:39.039Z,7.28
2023-01-20T11:25:27.750Z,8.23
2023-01-20T11:28:18.403Z,8.57
2023-01-20T11:31:06.715Z,7.85
2023-01-20T11:34:00.113Z,8.13
2023-01-20T11:36:48.952Z,7.70
2023-01-20T11:39:38.277Z,7.15
2023-01-20T11:42:27.547Z,8.10
2023-01-20T11:45:30.462Z,7.75
2023-01-20T11:48:21.698Z,8.13
2023-01-20T11:51:20.486Z,8.57
2023-01-20T11:54:13.601Z,7.28
2023-01-20T11:57:04.743Z,8.03
2023-01-20T11:59:52.012Z,8.32
2023-01-20T12:02:41.270Z,7.72
2023-01-20T12:05:36.271Z,7.40
2023-01-20T12:08:30.277Z,7.53
2023-01-20T12:14:23.154Z,7.35
2023-01-20T12:17:21.790Z,7.75
2023-01-20T12:20:20.162Z,8.13
2023-01-20T12:23:21.351Z,7.85
2023-01-20T12:26:11.554Z,7.75
2023-01-20T12:29:06.076Z,7.75
2023-01-20T12:31:54.499Z,7.22
2023-01-20T12:34:42.229Z,7.32
2023-01-20T12:37:39.506Z,6.57
2023-01-20T12:40:36.797Z,7.25
2023-01-20T12:43:28.078Z,7.30
2023-01-20T12:46:28.294Z,8.13
2023-01-20T12:49:28.577Z,7.20
2023-01-20T12:52:28.780Z,7.65
2023-01-20T12:55:24.547Z,6.63
2023-01-20T12:58:21.964Z,7.35
2023-01-20T13:01:29.676Z,7.43
2023-01-20T13:04:42.725Z,7.75
2023-01-20T13:07:49.881Z,6.95
2023-01-20T13:10:51.013Z,8.75
2023-01-20T13:13:56.988Z,7.55
2023-01-20T13:16:51.243Z,7.45
2023-01-20T13:19:39.532Z,8.30
2023-01-20T13:22:27.031Z,6.70
2023-01-20T13:25:17.188Z,7.35
2023-01-20T13:28:05.253Z,10.10
2023-01-20T13:30:54.828Z,7.95
2023-01-20T13:33:43.911Z,7.80
2023-01-20T13:36:32.451Z,7.60
2023-01-20T13:39:42.062Z,7.15
2023-01-20T13:42:32.513Z,8.00
2023-01-20T13:45:23.848Z,8.82
2023-01-20T13:48:24.485Z,10.07
2023-01-20T13:51:47.134Z,9.23
2023-01-20T13:54:45.986Z,8.75
2023-01-20T13:57:37.680Z,10.13
2023-01-20T14:00:25.246Z,9.60
2023-01-20T14:03:22.280Z,9.38
2023-01-20T14:06:21.228Z,10.57
2023-01-20T14:09:20.385Z,8.35
2023-01-20T14:12:09.290Z,10.50
2023-01-20T14:14:56.544Z,10.23
2023-01-20T14:17:44.135Z,10.32
2023-01-20T14:20:32.331Z,10.38
2023-01-20T14:23:31.962Z,11.65
2023-01-20T14:26:26.037Z,11.60
2023-01-20T14:29:20.119Z,10.52
2023-01-20T14:32:21.136Z,10.80
2023-01-20T14:35:15.637Z,9.68
2023-01-20T14:38:03.440Z,11.98
2023-01-20T14:40:50.889Z,9.63
2023-01-20T14:43:46.552Z,10.35
2023-01-20T14:46:36.732Z,11.68
2023-01-20T14:49:27.372Z,11.75
2023-01-20T14:52:24.019Z,10.27
2023-01-20T14:55:30.891Z,10.57
2023-01-20T14:58:20.044Z,10.30
2023-01-20T15:01:20.910Z,11.57
2023-01-20T15:04:12.949Z,10.00
2023-01-20T15:07:00.256Z,9.73
2023-01-20T15:09:55.274Z,10.50
2023-01-20T15:12:55.373Z,8.75
2023-01-20T15:15:43.609Z,10.02
2023-01-20T15:18:32.351Z,9.85
2023-01-20T15:21:27.525Z,9.43
2023-01-20T15:24:17.091Z,8.60
2023-01-20T15:27:22.706Z,9.13
2023-01-20T15:30:16.818Z,8.68
2023-01-20T15:33:04.689Z,8.88
2023-01-20T15:35:55.388Z,9.38
2023-01-20T15:38:42.624Z,10.15
2023-01-20T15:41:30.120Z,8.35
2023-01-20T15:44:17.367Z,9.55
2023-01-20T15:47:17.675Z,10.48
2023-01-20T15:50:05.562Z,8.90
2023-01-20T15:52:54.793Z,9.82
2023-01-20T15:55:47.534Z,8.68
2023-01-20T15:58:35.935Z,9.18
2023-01-20T16:01:26.330Z,9.23
2023-01-20T16:04:14.124Z,10.40
2023-01-20T16:07:01.496Z,9.68
2023-01-20T16:09:50.539Z,9.25
2023-01-20T16:12:38.158Z,9.40
2023-01-20T16:15:25.822Z,10.27
2023-01-20T16:18:15.533Z,10.80
2023-01-20T16:21:03.022Z,10.50
2023-01-20T16:23:50.553Z,10.57
2023-01-20T16:26:39.462Z,8.95
2023-01-20T16:29:27.265Z,9.88
2023-01-20T16:32:17.397Z,9.85
2023-01-20T16:35:06.889Z,10.07
2023-01-20T16:37:54.238Z,10.20
2023-01-20T16:40:47.471Z,10.85
2023-01-20T16:43:40.980Z,11.53
2023-01-20T16:46:29.885Z,10.38
2023-01-20T16:49:17.995Z,11.00
2023-01-20T16:52:05.914Z,11.18
2023-01-20T16:54:53.300Z,10.40
2023-01-20T16:57:40.674Z,11.00
2023-01-20T17:00:29.710Z,10.90
2023-01-20T17:03:17.390Z,12.20
2023-01-20T17:06:10.485Z,10.18
2023-01-20T17:09:00.422Z,9.70
2023-01-20T17:11:47.764Z,11.02
2023-01-20T17:14:35.934Z,10.05
2023-01-20T17:17:24.958Z,9.20
2023-01-20T17:20:12.512Z,10.50
2023-01-20T17:23:00.735Z,8.98
2023-01-20T17:25:48.493Z,10.95
2023-01-20T17:28:36.332Z,9.68
2023-01-20T17:31:24.249Z,9.13
2023-01-20T17:34:12.925Z,10.07
2023-01-20T17:37:00.417Z,10.48
2023-01-20T17:39:48.119Z,10.65
2023-01-20T17:42:35.504Z,10.05
2023-01-20T17:45:23.011Z,12.40
2023-01-20T17:48:10.641Z,10.85
2023-01-20T17:51:00.015Z,12.07
2023-01-20T17:53:48.419Z,11.43
2023-01-20T17:56:35.661Z,10.75
2023-01-20T17:59:23.225Z,9.98
2023-01-20T18:02:12.392Z,10.35
2023-01-20T18:04:59.665Z,10.63
2023-01-20T18:07:49.909Z,12.45
2023-01-20T18:10:37.232Z,12.85
2023-01-20T18:13:24.696Z,13.02
2023-01-20T18:16:14.287Z,12.70
2023-01-20T18:19:02.299Z,12.35
2023-01-20T18:21:49.750Z,11.98
2023-01-20T18:24:38.696Z,11.05
2023-01-20T18:27:26.405Z,10.25
2023-01-20T18:30:15.327Z,11.65
2023-01-20T18:33:02.733Z,10.10
2023-01-20T18:35:50.187Z,11.52
2023-01-20T18:38:43.138Z,12.18
2023-01-20T18:41:35.739Z,11.73
2023-01-20T18:44:24.335Z,13.18
2023-01-20T18:47:11.754Z,13.95
2023-01-20T18:49:59.439Z,13.05
2023-01-20T18:52:46.955Z,11.57
2023-01-20T18:55:34.368Z,10.65
2023-01-20T18:58:22.783Z,10.15
2023-01-20T19:01:12.819Z,11.45
2023-01-20T19:04:00.710Z,11.25
2023-01-20T19:06:48.233Z,10.23
2023-01-20T19:09:35.680Z,10.35
2023-01-20T19:12:22.787Z,9.75
2023-01-20T19:15:12.235Z,11.25
2023-01-20T19:17:59.281Z,9.88
2023-01-20T19:20:46.421Z,10.75
2023-01-20T19:23:33.831Z,10.30
2023-01-20T19:26:22.285Z,11.38
2023-01-20T19:29:15.670Z,10.95
2023-01-20T19:32:04.610Z,10.35
2023-01-20T19:34:52.193Z,10.15
2023-01-20T19:37:39.557Z,10.40
2023-01-20T19:40:27.134Z,10.35
2023-01-20T19:43:14.749Z,10.82
2023-01-20T19:46:03.426Z,9.65
2023-01-20T19:48:52.763Z,11.63
2023-01-20T19:51:40.271Z,12.55
2023-01-20T19:54:30.953Z,9.95
2023-01-20T19:57:18.612Z,10.57
2023-01-20T20:00:07.397Z,10.23
2023-01-20T20:02:55.701Z,9.65
2023-01-20T20:05:44.656Z,11.02
2023-01-20T20:08:32.496Z,10.23
2023-01-20T20:11:20.194Z,9.77
2023-01-20T20:14:09.541Z,9.68
2023-01-20T20:16:56.587Z,10.55
2023-01-20T20:19:43.830Z,10.05
2023-01-20T20:22:32.927Z,10.57
2023-01-20T20:25:20.562Z,11.13
2023-01-20T20:28:08.356Z,10.82
2023-01-20T20:30:56.623Z,11.23
2023-01-20T20:33:45.471Z,10.05
2023-01-20T20:36:33.618Z,9.85
2023-01-20T20:39:22.251Z,9.90
2023-01-20T20:42:09.833Z,9.95
2023-01-20T20:44:57.394Z,10.30
2023-01-20T20:47:45.116Z,9.73
2023-01-20T20:50:32.830Z,9.23
2023-01-20T20:53:20.325Z,10.52
2023-01-20T20:56:11.696Z,10.32
2023-01-20T20:59:02.298Z,10.75
2023-01-20T21:01:50.345Z,9.65
2023-01-20T21:04:37.504Z,11.25
2023-01-20T21:07:25.144Z,12.23
2023-01-20T21:10:15.635Z,12.10
2023-01-20T21:13:07.052Z,11.48
2023-01-20T21:15:59.705Z,10.65
2023-01-20T21:18:47.266Z,10.48
2023-01-20T21:21:34.809Z,10.48
2023-01-20T21:24:25.968Z,10.18
2023-01-20T21:27:13.410Z,9.93
2023-01-20T21:30:02.198Z,9.93
2023-01-20T21:32:49.817Z,9.30
2023-01-20T21:35:38.556Z,8.88
2023-01-20T21:38:25.682Z,8.93
2023-01-20T21:41:15.167Z,9.95
2023-01-20T21:44:19.753Z,10.00
2023-01-20T21:47:08.901Z,11.07
2023-01-20T21:50:14.078Z,9.00
2023-01-20T21:53:01.694Z,10.13
2023-01-20T21:55:49.273Z,12.07
2023-01-20T21:58:36.808Z,11.40
2023-01-20T22:01:24.400Z,10.32
2023-01-20T22:04:13.333Z,9.65
2023-01-20T22:07:01.124Z,10.85
2023-01-20T22:09:48.673Z,9.55
2023-01-20T22:12:36.097Z,9.82
2023-01-20T22:15:23.634Z,10.77
2023-01-20T22:18:11.196Z,10.77
2023-01-20T22:21:03.714Z,10.88
2023-01-20T22:23:50.876Z,9.88
2023-01-20T22:26:38.136Z,11.25
2023-01-20T22:29:26.175Z,11.18
2023-01-20T22:32:14.208Z,10.82
2023-01-20T22:35:01.756Z,10.20
2023-01-20T22:37:50.740Z,10.98
2023-01-20T22:40:38.317Z,9.68
2023-01-20T22:43:25.967Z,10.00
2023-01-20T22:46:14.322Z,10.20
2023-01-20T22:49:01.443Z,8.52
2023-01-20T22:51:49.093Z,9.80
2023-01-20T22:54:38.162Z,9.85
2023-01-20T22:57:25.819Z,10.90
2023-01-20T23:00:13.818Z,10.65
2023-01-20T23:03:01.395Z,10.40
2023-01-20T23:05:52.389Z,9.68
2023-01-20T23:08:39.948Z,9.77
2023-01-20T23:11:28.635Z,9.68
2023-01-20T23:14:16.530Z,10.52
2023-01-20T23:17:03.987Z,9.10
2023-01-20T23:19:51.323Z,9.88
2023-01-20T23:22:38.721Z,10.07
2023-01-20T23:25:26.276Z,8.77
2023-01-20T23:28:15.510Z,8.57
2023-01-20T23:31:03.399Z,8.90
2023-01-20T23:33:51.695Z,8.80
2023-01-20T23:36:39.170Z,9.32
2023-01-20T23:39:26.563Z,8.20
2023-01-20T23:42:14.078Z,8.32
2023-01-20T23:45:02.899Z,8.77
2023-01-20T23:47:50.269Z,9.75
2023-01-20T23:50:37.924Z,9.73
2023-01-20T23:53:25.656Z,9.25
2023-01-20T23:56:15.284Z,9.93
2023-01-20T23:59:02.810Z,9.45
